sensor_id;sensor_type;location;lat;lon;timestamp;P1;durP1;ratioP1;P2;durP2;ratioP2
7791;SDS011;3940;49.892;10.886;2022-09-09T00:00:31;2.13;;;1.83;;
7791;SDS011;3940;49.892;10.886;2022-09-09T00:03:23;3.00;;;2.17;;
7791;SDS011;3940;49.892;10.886;2022-09-09T00:06:21;3.30;;;1.90;;
7791;SDS011;3940;49.892;10.886;2022-09-09T00:09:12;3.20;;;1.80;;
7791;SDS011;3940;49.892;10.886;2022-09-09T00:12:06;3.37;;;2.30;;
7791;SDS011;3940;49.892;10.886;2022-09-09T00:15:00;1.90;;;1.80;;
7791;SDS011;3940;49.892;10.886;2022-09-09T00:17:53;2.43;;;2.23;;
7791;SDS011;3940;49.892;10.886;2022-09-09T00:20:47;9.30;;;1.90;;
7791;SDS011;3940;49.892;10.886;2022-09-09T00:23:44;6.23;;;2.00;;
7791;SDS011;3940;49.892;10.886;2022-09-09T00:26:44;2.10;;;1.80;;
7791;SDS011;3940;49.892;10.886;2022-09-09T00:29:39;3.70;;;2.20;;
7791;SDS011;3940;49.892;10.886;2022-09-09T00:32:29;5.20;;;2.17;;
7791;SDS011;3940;49.892;10.886;2022-09-09T00:35:18;2.47;;;1.90;;
7791;SDS011;3940;49.892;10.886;2022-09-09T00:38:13;9.00;;;2.90;;
7791;SDS011;3940;49.892;10.886;2022-09-09T00:41:10;2.20;;;2.00;;
7791;SDS011;3940;49.892;10.886;2022-09-09T00:44:13;2.47;;;1.90;;
7791;SDS011;3940;49.892;10.886;2022-09-09T00:50:37;1.90;;;1.80;;
7791;SDS011;3940;49.892;10.886;2022-09-09T00:53:39;2.43;;;2.23;;
7791;SDS011;3940;49.892;10.886;2022-09-09T00:56:59;3.27;;;1.90;;
7791;SDS011;3940;49.892;10.886;2022-09-09T00:59:56;1.67;;;1.57;;
7791;SDS011;3940;49.892;10.886;2022-09-09T01:02:53;2.53;;;1.57;;
7791;SDS011;3940;49.892;10.886;2022-09-09T01:09:21;3.10;;;2.20;;
7791;SDS011;3940;49.892;10.886;2022-09-09T01:12:15;3.17;;;2.13;;
7791;SDS011;3940;49.892;10.886;2022-09-09T01:15:10;4.63;;;2.63;;
7791;SDS011;3940;49.892;10.886;2022-09-09T01:18:04;1.93;;;1.83;;
7791;SDS011;3940;49.892;10.886;2022-09-09T01:24:22;1.73;;;1.63;;
7791;SDS011;3940;49.892;10.886;2022-09-09T01:27:15;2.00;;;1.80;;
7791;SDS011;3940;49.892;10.886;2022-09-09T01:30:04;2.30;;;2.10;;
7791;SDS011;3940;49.892;10.886;2022-09-09T01:32:55;13.53;;;2.67;;
7791;SDS011;3940;49.892;10.886;2022-09-09T01:38:44;3.13;;;2.10;;
7791;SDS011;3940;49.892;10.886;2022-09-09T01:41:29;2.20;;;2.07;;
7791;SDS011;3940;49.892;10.886;2022-09-09T01:44:14;2.30;;;2.10;;
7791;SDS011;3940;49.892;10.886;2022-09-09T01:47:02;4.70;;;2.60;;
7791;SDS011;3940;49.892;10.886;2022-09-09T01:49:47;2.53;;;2.00;;
7791;SDS011;3940;49.892;10.886;2022-09-09T01:52:34;4.90;;;2.10;;
7791;SDS011;3940;49.892;10.886;2022-09-09T01:55:23;5.23;;;2.57;;
7791;SDS011;3940;49.892;10.886;2022-09-09T02:04:47;2.40;;;2.00;;
7791;SDS011;3940;49.892;10.886;2022-09-09T02:07:40;4.60;;;2.10;;
7791;SDS011;3940;49.892;10.886;2022-09-09T02:13:34;2.50;;;1.90;;
7791;SDS011;3940;49.892;10.886;2022-09-09T02:19:29;6.30;;;2.00;;
7791;SDS011;3940;49.892;10.886;2022-09-09T02:22:19;2.43;;;1.90;;
7791;SDS011;3940;49.892;10.886;2022-09-09T02:25:08;3.33;;;1.73;;
7791;SDS011;3940;49.892;10.886;2022-09-09T02:28:04;5.37;;;2.27;;
7791;SDS011;3940;49.892;10.886;2022-09-09T02:31:14;7.07;;;2.30;;
7791;SDS011;3940;49.892;10.886;2022-09-09T02:34:01;2.90;;;2.27;;
7791;SDS011;3940;49.892;10.886;2022-09-09T02:36:48;4.80;;;2.27;;
7791;SDS011;3940;49.892;10.886;2022-09-09T02:39:36;2.60;;;2.33;;
7791;SDS011;3940;49.892;10.886;2022-09-09T02:42:23;3.07;;;2.67;;
7791;SDS011;3940;49.892;10.886;2022-09-09T02:45:09;2.03;;;1.90;;
7791;SDS011;3940;49.892;10.886;2022-09-09T02:51:08;2.63;;;2.23;;
7791;SDS011;3940;49.892;10.886;2022-09-09T02:54:10;2.97;;;2.30;;
7791;SDS011;3940;49.892;10.886;2022-09-09T02:57:12;2.30;;;2.10;;
7791;SDS011;3940;49.892;10.886;2022-09-09T03:00:07;3.77;;;2.97;;
7791;SDS011;3940;49.892;10.886;2022-09-09T03:02:55;3.93;;;2.07;;
7791;SDS011;3940;49.892;10.886;2022-09-09T03:05:42;6.07;;;2.63;;
7791;SDS011;3940;49.892;10.886;2022-09-09T03:08:52;2.80;;;2.50;;
7791;SDS011;3940;49.892;10.886;2022-09-09T03:12:01;3.10;;;2.37;;
7791;SDS011;3940;49.892;10.886;2022-09-09T03:14:48;2.37;;;2.17;;
7791;SDS011;3940;49.892;10.886;2022-09-09T03:17:59;2.23;;;2.03;;
7791;SDS011;3940;49.892;10.886;2022-09-09T03:20:45;2.73;;;2.00;;
7791;SDS011;3940;49.892;10.886;2022-09-09T03:23:33;2.00;;;1.80;;
7791;SDS011;3940;49.892;10.886;2022-09-09T03:26:19;4.30;;;2.27;;
7791;SDS011;3940;49.892;10.886;2022-09-09T03:29:08;3.07;;;2.40;;
7791;SDS011;3940;49.892;10.886;2022-09-09T03:31:53;3.17;;;2.43;;
7791;SDS011;3940;49.892;10.886;2022-09-09T03:34:40;2.43;;;1.90;;
7791;SDS011;3940;49.892;10.886;2022-09-09T03:37:25;2.10;;;1.87;;
7791;SDS011;3940;49.892;10.886;2022-09-09T03:40:09;2.63;;;2.43;;
7791;SDS011;3940;49.892;10.886;2022-09-09T03:42:54;2.37;;;2.17;;
7791;SDS011;3940;49.892;10.886;2022-09-09T03:45:46;3.27;;;2.23;;
7791;SDS011;3940;49.892;10.886;2022-09-09T03:48:31;5.40;;;2.40;;
7791;SDS011;3940;49.892;10.886;2022-09-09T03:51:16;3.83;;;2.07;;
7791;SDS011;3940;49.892;10.886;2022-09-09T03:54:00;3.60;;;2.20;;
7791;SDS011;3940;49.892;10.886;2022-09-09T03:56:45;3.20;;;2.23;;
7791;SDS011;3940;49.892;10.886;2022-09-09T03:59:31;3.97;;;2.77;;
7791;SDS011;3940;49.892;10.886;2022-09-09T04:02:18;10.00;;;2.07;;
7791;SDS011;3940;49.892;10.886;2022-09-09T04:05:08;2.27;;;2.07;;
7791;SDS011;3940;49.892;10.886;2022-09-09T04:07:54;3.00;;;1.97;;
7791;SDS011;3940;49.892;10.886;2022-09-09T04:10:39;3.73;;;2.60;;
7791;SDS011;3940;49.892;10.886;2022-09-09T04:13:25;2.53;;;2.30;;
7791;SDS011;3940;49.892;10.886;2022-09-09T04:16:13;3.57;;;2.47;;
7791;SDS011;3940;49.892;10.886;2022-09-09T04:19:04;3.00;;;2.23;;
7791;SDS011;3940;49.892;10.886;2022-09-09T04:21:51;3.57;;;2.27;;
7791;SDS011;3940;49.892;10.886;2022-09-09T04:24:36;3.10;;;2.30;;
7791;SDS011;3940;49.892;10.886;2022-09-09T04:27:21;5.57;;;2.20;;
7791;SDS011;3940;49.892;10.886;2022-09-09T04:30:06;3.20;;;2.20;;
7791;SDS011;3940;49.892;10.886;2022-09-09T04:32:51;2.53;;;2.43;;
7791;SDS011;3940;49.892;10.886;2022-09-09T04:35:35;2.80;;;2.50;;
7791;SDS011;3940;49.892;10.886;2022-09-09T04:38:41;6.70;;;2.60;;
7791;SDS011;3940;49.892;10.886;2022-09-09T04:41:29;2.73;;;2.53;;
7791;SDS011;3940;49.892;10.886;2022-09-09T04:44:36;5.53;;;2.10;;
7791;SDS011;3940;49.892;10.886;2022-09-09T04:47:21;1.93;;;1.83;;
7791;SDS011;3940;49.892;10.886;2022-09-09T04:50:07;3.23;;;2.57;;
7791;SDS011;3940;49.892;10.886;2022-09-09T04:52:52;4.00;;;2.37;;
7791;SDS011;3940;49.892;10.886;2022-09-09T04:55:38;5.47;;;2.73;;
7791;SDS011;3940;49.892;10.886;2022-09-09T04:58:27;3.20;;;2.87;;
7791;SDS011;3940;49.892;10.886;2022-09-09T05:01:13;2.50;;;2.30;;
7791;SDS011;3940;49.892;10.886;2022-09-09T05:04:02;3.07;;;2.77;;
7791;SDS011;3940;49.892;10.886;2022-09-09T05:06:47;5.40;;;3.03;;
7791;SDS011;3940;49.892;10.886;2022-09-09T05:09:34;5.33;;;2.30;;
7791;SDS011;3940;49.892;10.886;2022-09-09T05:12:24;2.70;;;2.37;;
7791;SDS011;3940;49.892;10.886;2022-09-09T05:15:09;3.77;;;2.03;;
7791;SDS011;3940;49.892;10.886;2022-09-09T05:17:58;4.53;;;2.33;;
7791;SDS011;3940;49.892;10.886;2022-09-09T05:20:44;2.47;;;2.27;;
7791;SDS011;3940;49.892;10.886;2022-09-09T05:23:29;2.83;;;2.23;;
7791;SDS011;3940;49.892;10.886;2022-09-09T05:26:15;2.30;;;2.10;;
7791;SDS011;3940;49.892;10.886;2022-09-09T05:29:01;4.07;;;3.30;;
7791;SDS011;3940;49.892;10.886;2022-09-09T05:31:46;2.87;;;2.37;;
7791;SDS011;3940;49.892;10.886;2022-09-09T05:34:31;4.47;;;3.93;;
7791;SDS011;3940;49.892;10.886;2022-09-09T05:37:15;6.83;;;2.77;;
7791;SDS011;3940;49.892;10.886;2022-09-09T05:40:00;2.90;;;2.70;;
7791;SDS011;3940;49.892;10.886;2022-09-09T05:42:45;6.53;;;2.60;;
7791;SDS011;3940;49.892;10.886;2022-09-09T05:45:32;3.70;;;2.40;;
7791;SDS011;3940;49.892;10.886;2022-09-09T05:48:16;2.60;;;2.10;;
7791;SDS011;3940;49.892;10.886;2022-09-09T05:51:03;2.83;;;2.20;;
7791;SDS011;3940;49.892;10.886;2022-09-09T05:53:53;4.90;;;2.70;;
7791;SDS011;3940;49.892;10.886;2022-09-09T05:56:43;2.17;;;2.07;;
7791;SDS011;3940;49.892;10.886;2022-09-09T05:59:28;2.83;;;2.30;;
7791;SDS011;3940;49.892;10.886;2022-09-09T06:02:12;4.90;;;3.23;;
7791;SDS011;3940;49.892;10.886;2022-09-09T06:04:57;2.83;;;2.63;;
7791;SDS011;3940;49.892;10.886;2022-09-09T06:07:42;2.93;;;2.70;;
7791;SDS011;3940;49.892;10.886;2022-09-09T06:10:28;5.10;;;2.57;;
7791;SDS011;3940;49.892;10.886;2022-09-09T06:13:14;2.40;;;2.20;;
7791;SDS011;3940;49.892;10.886;2022-09-09T06:16:01;3.40;;;2.70;;
7791;SDS011;3940;49.892;10.886;2022-09-09T06:19:27;8.33;;;2.20;;
7791;SDS011;3940;49.892;10.886;2022-09-09T06:22:12;2.43;;;2.23;;
7791;SDS011;3940;49.892;10.886;2022-09-09T06:24:58;4.00;;;2.53;;
7791;SDS011;3940;49.892;10.886;2022-09-09T06:27:48;2.40;;;2.20;;
7791;SDS011;3940;49.892;10.886;2022-09-09T06:30:36;1.80;;;1.67;;
7791;SDS011;3940;49.892;10.886;2022-09-09T06:33:22;3.83;;;2.53;;
7791;SDS011;3940;49.892;10.886;2022-09-09T06:36:10;9.23;;;2.83;;
7791;SDS011;3940;49.892;10.886;2022-09-09T06:38:56;2.37;;;2.17;;
7791;SDS011;3940;49.892;10.886;2022-09-09T06:41:42;5.10;;;2.73;;
7791;SDS011;3940;49.892;10.886;2022-09-09T06:44:26;3.73;;;2.27;;
7791;SDS011;3940;49.892;10.886;2022-09-09T06:47:11;2.33;;;2.13;;
7791;SDS011;3940;49.892;10.886;2022-09-09T06:49:55;2.50;;;2.30;;
7791;SDS011;3940;49.892;10.886;2022-09-09T06:52:40;1.83;;;1.73;;
7791;SDS011;3940;49.892;10.886;2022-09-09T06:55:26;9.20;;;2.60;;
7791;SDS011;3940;49.892;10.886;2022-09-09T06:58:11;3.83;;;2.40;;
7791;SDS011;3940;49.892;10.886;2022-09-09T07:01:04;3.77;;;2.70;;
7791;SDS011;3940;49.892;10.886;2022-09-09T07:04:11;4.10;;;1.97;;
7791;SDS011;3940;49.892;10.886;2022-09-09T07:06:59;2.50;;;2.30;;
7791;SDS011;3940;49.892;10.886;2022-09-09T07:10:05;2.53;;;2.17;;
7791;SDS011;3940;49.892;10.886;2022-09-09T07:13:12;3.07;;;2.57;;
7791;SDS011;3940;49.892;10.886;2022-09-09T07:16:07;4.27;;;2.30;;
7791;SDS011;3940;49.892;10.886;2022-09-09T07:18:52;3.77;;;1.73;;
7791;SDS011;3940;49.892;10.886;2022-09-09T07:21:42;3.00;;;2.30;;
7791;SDS011;3940;49.892;10.886;2022-09-09T07:24:28;2.20;;;2.00;;
7791;SDS011;3940;49.892;10.886;2022-09-09T07:27:14;2.27;;;2.07;;
7791;SDS011;3940;49.892;10.886;2022-09-09T07:29:59;5.53;;;2.10;;
7791;SDS011;3940;49.892;10.886;2022-09-09T07:33:06;4.70;;;3.30;;
7791;SDS011;3940;49.892;10.886;2022-09-09T07:35:51;4.23;;;2.30;;
7791;SDS011;3940;49.892;10.886;2022-09-09T07:38:50;4.23;;;2.27;;
7791;SDS011;3940;49.892;10.886;2022-09-09T07:41:39;4.90;;;3.70;;
7791;SDS011;3940;49.892;10.886;2022-09-09T07:44:28;5.43;;;2.37;;
7791;SDS011;3940;49.892;10.886;2022-09-09T07:47:13;1.90;;;1.80;;
7791;SDS011;3940;49.892;10.886;2022-09-09T07:50:00;2.50;;;1.87;;
7791;SDS011;3940;49.892;10.886;2022-09-09T07:52:48;2.23;;;2.00;;
7791;SDS011;3940;49.892;10.886;2022-09-09T07:55:36;4.43;;;2.23;;
7791;SDS011;3940;49.892;10.886;2022-09-09T07:58:27;7.80;;;2.53;;
7791;SDS011;3940;49.892;10.886;2022-09-09T08:01:14;2.00;;;1.80;;
7791;SDS011;3940;49.892;10.886;2022-09-09T08:04:02;3.83;;;2.03;;
7791;SDS011;3940;49.892;10.886;2022-09-09T08:06:56;1.77;;;1.67;;
7791;SDS011;3940;49.892;10.886;2022-09-09T08:09:43;1.70;;;1.60;;
7791;SDS011;3940;49.892;10.886;2022-09-09T08:12:29;2.70;;;1.60;;
7791;SDS011;3940;49.892;10.886;2022-09-09T08:15:15;3.73;;;1.93;;
7791;SDS011;3940;49.892;10.886;2022-09-09T08:18:03;1.70;;;1.60;;
7791;SDS011;3940;49.892;10.886;2022-09-09T08:20:48;1.70;;;1.60;;
7791;SDS011;3940;49.892;10.886;2022-09-09T08:23:38;6.57;;;1.97;;
7791;SDS011;3940;49.892;10.886;2022-09-09T08:26:27;7.13;;;2.07;;
7791;SDS011;3940;49.892;10.886;2022-09-09T08:29:35;2.00;;;1.50;;
7791;SDS011;3940;49.892;10.886;2022-09-09T08:32:23;2.80;;;1.50;;
7791;SDS011;3940;49.892;10.886;2022-09-09T08:35:08;1.40;;;1.30;;
7791;SDS011;3940;49.892;10.886;2022-09-09T08:37:54;1.40;;;1.30;;
7791;SDS011;3940;49.892;10.886;2022-09-09T08:40:39;1.60;;;1.47;;
7791;SDS011;3940;49.892;10.886;2022-09-09T08:43:27;2.43;;;1.70;;
7791;SDS011;3940;49.892;10.886;2022-09-09T08:46:24;2.27;;;1.60;;
7791;SDS011;3940;49.892;10.886;2022-09-09T08:52:49;2.67;;;1.30;;
7791;SDS011;3940;49.892;10.886;2022-09-09T08:55:57;6.93;;;2.50;;
7791;SDS011;3940;49.892;10.886;2022-09-09T08:58:47;2.23;;;1.53;;
7791;SDS011;3940;49.892;10.886;2022-09-09T09:05:00;2.13;;;1.90;;
7791;SDS011;3940;49.892;10.886;2022-09-09T09:08:17;2.13;;;1.93;;
7791;SDS011;3940;49.892;10.886;2022-09-09T09:11:12;3.40;;;1.50;;
7791;SDS011;3940;49.892;10.886;2022-09-09T09:13:59;1.70;;;1.43;;
7791;SDS011;3940;49.892;10.886;2022-09-09T09:16:56;2.50;;;1.20;;
7791;SDS011;3940;49.892;10.886;2022-09-09T09:19:52;4.33;;;1.53;;
7791;SDS011;3940;49.892;10.886;2022-09-09T09:25:40;1.60;;;1.50;;
7791;SDS011;3940;49.892;10.886;2022-09-09T09:28:29;3.37;;;1.37;;
7791;SDS011;3940;49.892;10.886;2022-09-09T09:31:18;5.80;;;2.03;;
7791;SDS011;3940;49.892;10.886;2022-09-09T09:34:04;6.30;;;1.60;;
7791;SDS011;3940;49.892;10.886;2022-09-09T09:36:53;1.50;;;1.40;;
7791;SDS011;3940;49.892;10.886;2022-09-09T09:39:43;3.73;;;2.33;;
7791;SDS011;3940;49.892;10.886;2022-09-09T09:42:28;9.57;;;1.73;;
7791;SDS011;3940;49.892;10.886;2022-09-09T09:45:20;3.00;;;1.97;;
7791;SDS011;3940;49.892;10.886;2022-09-09T09:48:30;6.50;;;2.67;;
7791;SDS011;3940;49.892;10.886;2022-09-09T09:51:16;2.87;;;1.43;;
7791;SDS011;3940;49.892;10.886;2022-09-09T09:57:12;10.10;;;2.10;;
7791;SDS011;3940;49.892;10.886;2022-09-09T10:03:13;2.60;;;2.00;;
7791;SDS011;3940;49.892;10.886;2022-09-09T10:06:11;2.20;;;1.83;;
7791;SDS011;3940;49.892;10.886;2022-09-09T10:08:57;6.07;;;2.07;;
7791;SDS011;3940;49.892;10.886;2022-09-09T10:11:55;2.40;;;1.50;;
7791;SDS011;3940;49.892;10.886;2022-09-09T10:15:07;1.30;;;1.20;;
7791;SDS011;3940;49.892;10.886;2022-09-09T10:21:31;3.97;;;1.70;;
7791;SDS011;3940;49.892;10.886;2022-09-09T10:24:47;3.90;;;1.50;;
7791;SDS011;3940;49.892;10.886;2022-09-09T10:31:17;1.20;;;1.10;;
7791;SDS011;3940;49.892;10.886;2022-09-09T10:34:36;3.40;;;1.40;;
7791;SDS011;3940;49.892;10.886;2022-09-09T10:41:09;8.30;;;1.50;;
7791;SDS011;3940;49.892;10.886;2022-09-09T10:47:36;13.30;;;1.70;;
7791;SDS011;3940;49.892;10.886;2022-09-09T10:50:37;1.87;;;1.67;;
7791;SDS011;3940;49.892;10.886;2022-09-09T10:53:48;3.83;;;1.40;;
7791;SDS011;3940;49.892;10.886;2022-09-09T10:56:43;1.87;;;1.20;;
7791;SDS011;3940;49.892;10.886;2022-09-09T10:59:41;2.10;;;1.90;;
7791;SDS011;3940;49.892;10.886;2022-09-09T11:02:33;1.30;;;1.10;;
7791;SDS011;3940;49.892;10.886;2022-09-09T11:05:20;1.43;;;1.10;;
7791;SDS011;3940;49.892;10.886;2022-09-09T11:08:23;2.60;;;1.30;;
7791;SDS011;3940;49.892;10.886;2022-09-09T11:11:19;2.87;;;1.37;;
7791;SDS011;3940;49.892;10.886;2022-09-09T11:14:15;2.20;;;1.17;;
7791;SDS011;3940;49.892;10.886;2022-09-09T11:17:12;2.53;;;1.37;;
7791;SDS011;3940;49.892;10.886;2022-09-09T11:20:23;3.53;;;1.63;;
7791;SDS011;3940;49.892;10.886;2022-09-09T11:23:13;1.50;;;1.30;;
7791;SDS011;3940;49.892;10.886;2022-09-09T11:26:11;2.07;;;1.20;;
7791;SDS011;3940;49.892;10.886;2022-09-09T11:29:22;5.90;;;1.73;;
7791;SDS011;3940;49.892;10.886;2022-09-09T11:38:45;2.90;;;1.40;;
7791;SDS011;3940;49.892;10.886;2022-09-09T11:41:33;4.78;;;1.65;;
7791;SDS011;3940;49.892;10.886;2022-09-09T11:44:25;2.95;;;2.30;;
7791;SDS011;3940;49.892;10.886;2022-09-09T11:47:22;4.00;;;1.73;;
7791;SDS011;3940;49.892;10.886;2022-09-09T11:50:32;2.20;;;1.92;;
7791;SDS011;3940;49.892;10.886;2022-09-09T11:53:20;2.40;;;1.30;;
7791;SDS011;3940;49.892;10.886;2022-09-09T11:56:09;1.58;;;1.30;;
7791;SDS011;3940;49.892;10.886;2022-09-09T11:58:59;1.50;;;1.40;;
7791;SDS011;3940;49.892;10.886;2022-09-09T12:01:49;1.50;;;1.20;;
7791;SDS011;3940;49.892;10.886;2022-09-09T12:04:41;2.60;;;1.20;;
7791;SDS011;3940;49.892;10.886;2022-09-09T12:07:51;4.10;;;2.27;;
7791;SDS011;3940;49.892;10.886;2022-09-09T12:10:52;2.70;;;1.47;;
7791;SDS011;3940;49.892;10.886;2022-09-09T12:13:38;3.30;;;1.40;;
7791;SDS011;3940;49.892;10.886;2022-09-09T12:16:30;1.30;;;1.10;;
7791;SDS011;3940;49.892;10.886;2022-09-09T12:19:19;2.67;;;1.20;;
7791;SDS011;3940;49.892;10.886;2022-09-09T12:22:27;1.88;;;1.17;;
7791;SDS011;3940;49.892;10.886;2022-09-09T12:31:51;1.00;;;0.90;;
7791;SDS011;3940;49.892;10.886;2022-09-09T12:34:52;1.20;;;1.10;;
7791;SDS011;3940;49.892;10.886;2022-09-09T12:37:42;1.50;;;1.03;;
7791;SDS011;3940;49.892;10.886;2022-09-09T12:40:37;3.73;;;1.00;;
7791;SDS011;3940;49.892;10.886;2022-09-09T12:43:24;1.37;;;1.10;;
7791;SDS011;3940;49.892;10.886;2022-09-09T12:46:12;1.33;;;1.10;;
7791;SDS011;3940;49.892;10.886;2022-09-09T12:49:05;1.33;;;1.13;;
7791;SDS011;3940;49.892;10.886;2022-09-09T12:52:08;1.47;;;1.00;;
7791;SDS011;3940;49.892;10.886;2022-09-09T12:55:00;1.93;;;0.97;;
7791;SDS011;3940;49.892;10.886;2022-09-09T12:57:47;1.77;;;1.23;;
7791;SDS011;3940;49.892;10.886;2022-09-09T13:00:34;1.00;;;0.90;;
7791;SDS011;3940;49.892;10.886;2022-09-09T13:03:19;1.27;;;1.17;;
7791;SDS011;3940;49.892;10.886;2022-09-09T13:06:13;1.10;;;1.00;;
7791;SDS011;3940;49.892;10.886;2022-09-09T13:09:03;1.40;;;1.00;;
7791;SDS011;3940;49.892;10.886;2022-09-09T13:11:49;2.50;;;1.20;;
7791;SDS011;3940;49.892;10.886;2022-09-09T13:14:38;1.20;;;0.90;;
7791;SDS011;3940;49.892;10.886;2022-09-09T13:17:27;5.83;;;2.73;;
7791;SDS011;3940;49.892;10.886;2022-09-09T13:20:16;1.73;;;1.00;;
7791;SDS011;3940;49.892;10.886;2022-09-09T13:23:01;1.20;;;1.10;;
7791;SDS011;3940;49.892;10.886;2022-09-09T13:28:47;1.10;;;1.00;;
7791;SDS011;3940;49.892;10.886;2022-09-09T13:31:35;1.40;;;1.10;;
7791;SDS011;3940;49.892;10.886;2022-09-09T13:34:28;1.70;;;1.60;;
7791;SDS011;3940;49.892;10.886;2022-09-09T13:37:21;1.73;;;1.17;;
7791;SDS011;3940;49.892;10.886;2022-09-09T13:40:16;1.10;;;1.00;;
7791;SDS011;3940;49.892;10.886;2022-09-09T13:43:03;1.50;;;1.40;;
7791;SDS011;3940;49.892;10.886;2022-09-09T13:45:52;3.00;;;1.30;;
7791;SDS011;3940;49.892;10.886;2022-09-09T13:48:39;2.80;;;1.10;;
7791;SDS011;3940;49.892;10.886;2022-09-09T13:51:41;2.42;;;1.20;;
7791;SDS011;3940;49.892;10.886;2022-09-09T13:54:30;2.10;;;1.20;;
7791;SDS011;3940;49.892;10.886;2022-09-09T13:57:16;3.63;;;1.53;;
7791;SDS011;3940;49.892;10.886;2022-09-09T14:00:02;1.57;;;1.00;;
7791;SDS011;3940;49.892;10.886;2022-09-09T14:02:48;1.73;;;1.10;;
7791;SDS011;3940;49.892;10.886;2022-09-09T14:05:33;2.80;;;1.43;;
7791;SDS011;3940;49.892;10.886;2022-09-09T14:08:21;1.50;;;1.10;;
7791;SDS011;3940;49.892;10.886;2022-09-09T14:11:11;1.30;;;1.20;;
7791;SDS011;3940;49.892;10.886;2022-09-09T14:13:58;2.13;;;1.40;;
7791;SDS011;3940;49.892;10.886;2022-09-09T14:16:44;1.10;;;1.00;;
7791;SDS011;3940;49.892;10.886;2022-09-09T14:19:29;1.30;;;1.20;;
7791;SDS011;3940;49.892;10.886;2022-09-09T14:22:14;2.33;;;1.40;;
7791;SDS011;3940;49.892;10.886;2022-09-09T14:24:59;1.87;;;1.30;;
7791;SDS011;3940;49.892;10.886;2022-09-09T14:27:45;2.20;;;1.27;;
7791;SDS011;3940;49.892;10.886;2022-09-09T14:30:54;1.63;;;1.20;;
7791;SDS011;3940;49.892;10.886;2022-09-09T14:33:40;1.97;;;1.20;;
7791;SDS011;3940;49.892;10.886;2022-09-09T14:36:25;4.50;;;1.73;;
7791;SDS011;3940;49.892;10.886;2022-09-09T14:39:12;2.93;;;1.60;;
7791;SDS011;3940;49.892;10.886;2022-09-09T14:41:56;2.17;;;1.73;;
7791;SDS011;3940;49.892;10.886;2022-09-09T14:44:43;3.13;;;1.63;;
7791;SDS011;3940;49.892;10.886;2022-09-09T14:47:28;1.77;;;1.27;;
7791;SDS011;3940;49.892;10.886;2022-09-09T14:50:17;1.43;;;1.30;;
7791;SDS011;3940;49.892;10.886;2022-09-09T14:53:06;1.30;;;1.20;;
7791;SDS011;3940;49.892;10.886;2022-09-09T14:56:06;1.70;;;1.20;;
7791;SDS011;3940;49.892;10.886;2022-09-09T14:58:54;1.87;;;1.50;;
7791;SDS011;3940;49.892;10.886;2022-09-09T15:02:11;2.40;;;1.33;;
7791;SDS011;3940;49.892;10.886;2022-09-09T15:04:57;1.67;;;1.00;;
7791;SDS011;3940;49.892;10.886;2022-09-09T15:07:42;3.10;;;1.23;;
7791;SDS011;3940;49.892;10.886;2022-09-09T15:10:26;3.13;;;1.40;;
7791;SDS011;3940;49.892;10.886;2022-09-09T15:13:15;1.80;;;1.20;;
7791;SDS011;3940;49.892;10.886;2022-09-09T15:16:04;1.20;;;1.10;;
7791;SDS011;3940;49.892;10.886;2022-09-09T15:19:10;1.40;;;1.30;;
7791;SDS011;3940;49.892;10.886;2022-09-09T15:21:54;1.77;;;1.30;;
7791;SDS011;3940;49.892;10.886;2022-09-09T15:24:44;1.20;;;1.10;;
7791;SDS011;3940;49.892;10.886;2022-09-09T15:27:32;2.27;;;2.00;;
7791;SDS011;3940;49.892;10.886;2022-09-09T15:30:17;3.20;;;1.17;;
7791;SDS011;3940;49.892;10.886;2022-09-09T15:33:07;3.10;;;1.33;;
7791;SDS011;3940;49.892;10.886;2022-09-09T15:35:52;4.83;;;2.03;;
7791;SDS011;3940;49.892;10.886;2022-09-09T15:38:37;5.30;;;1.40;;
7791;SDS011;3940;49.892;10.886;2022-09-09T15:41:23;1.60;;;1.30;;
7791;SDS011;3940;49.892;10.886;2022-09-09T15:44:22;1.53;;;1.00;;
7791;SDS011;3940;49.892;10.886;2022-09-09T15:47:10;4.30;;;1.20;;
7791;SDS011;3940;49.892;10.886;2022-09-09T15:49:57;2.20;;;1.20;;
7791;SDS011;3940;49.892;10.886;2022-09-09T15:53:04;2.70;;;1.30;;
7791;SDS011;3940;49.892;10.886;2022-09-09T15:55:55;3.90;;;1.37;;
7791;SDS011;3940;49.892;10.886;2022-09-09T15:58:40;1.40;;;1.10;;
7791;SDS011;3940;49.892;10.886;2022-09-09T16:01:26;1.20;;;1.10;;
7791;SDS011;3940;49.892;10.886;2022-09-09T16:04:11;1.93;;;1.10;;
7791;SDS011;3940;49.892;10.886;2022-09-09T16:06:58;1.43;;;1.23;;
7791;SDS011;3940;49.892;10.886;2022-09-09T16:09:46;1.83;;;1.00;;
7791;SDS011;3940;49.892;10.886;2022-09-09T16:12:31;2.67;;;1.20;;
7791;SDS011;3940;49.892;10.886;2022-09-09T16:15:16;2.60;;;1.50;;
7791;SDS011;3940;49.892;10.886;2022-09-09T16:18:01;2.10;;;1.47;;
7791;SDS011;3940;49.892;10.886;2022-09-09T16:20:53;1.33;;;1.10;;
7791;SDS011;3940;49.892;10.886;2022-09-09T16:23:38;2.37;;;1.13;;
7791;SDS011;3940;49.892;10.886;2022-09-09T16:26:23;1.93;;;1.47;;
7791;SDS011;3940;49.892;10.886;2022-09-09T16:29:07;1.50;;;1.40;;
7791;SDS011;3940;49.892;10.886;2022-09-09T16:31:52;2.03;;;1.10;;
7791;SDS011;3940;49.892;10.886;2022-09-09T16:34:37;1.20;;;1.10;;
7791;SDS011;3940;49.892;10.886;2022-09-09T16:37:22;1.57;;;1.30;;
7791;SDS011;3940;49.892;10.886;2022-09-09T16:40:07;2.30;;;1.63;;
7791;SDS011;3940;49.892;10.886;2022-09-09T16:42:52;1.40;;;1.30;;
7791;SDS011;3940;49.892;10.886;2022-09-09T16:45:44;1.70;;;1.60;;
7791;SDS011;3940;49.892;10.886;2022-09-09T16:48:32;1.10;;;1.00;;
7791;SDS011;3940;49.892;10.886;2022-09-09T16:51:19;1.50;;;1.27;;
7791;SDS011;3940;49.892;10.886;2022-09-09T16:54:08;1.50;;;1.40;;
7791;SDS011;3940;49.892;10.886;2022-09-09T16:56:53;2.40;;;1.20;;
7791;SDS011;3940;49.892;10.886;2022-09-09T16:59:38;2.30;;;1.50;;
7791;SDS011;3940;49.892;10.886;2022-09-09T17:02:23;1.53;;;1.07;;
7791;SDS011;3940;49.892;10.886;2022-09-09T17:05:08;1.83;;;1.17;;
7791;SDS011;3940;49.892;10.886;2022-09-09T17:07:53;4.10;;;1.30;;
7791;SDS011;3940;49.892;10.886;2022-09-09T17:10:41;1.20;;;1.10;;
7791;SDS011;3940;49.892;10.886;2022-09-09T17:13:25;1.93;;;1.10;;
7791;SDS011;3940;49.892;10.886;2022-09-09T17:16:11;2.30;;;1.20;;
7791;SDS011;3940;49.892;10.886;2022-09-09T17:18:57;2.67;;;1.40;;
7791;SDS011;3940;49.892;10.886;2022-09-09T17:21:43;2.60;;;1.60;;
7791;SDS011;3940;49.892;10.886;2022-09-09T17:24:30;4.40;;;1.60;;
7791;SDS011;3940;49.892;10.886;2022-09-09T17:27:15;1.80;;;1.63;;
7791;SDS011;3940;49.892;10.886;2022-09-09T17:30:00;2.30;;;1.40;;
7791;SDS011;3940;49.892;10.886;2022-09-09T17:32:46;3.83;;;1.70;;
7791;SDS011;3940;49.892;10.886;2022-09-09T17:35:30;1.73;;;1.60;;
7791;SDS011;3940;49.892;10.886;2022-09-09T17:38:15;1.40;;;1.30;;
7791;SDS011;3940;49.892;10.886;2022-09-09T17:41:02;1.97;;;1.47;;
7791;SDS011;3940;49.892;10.886;2022-09-09T17:43:48;5.07;;;1.93;;
7791;SDS011;3940;49.892;10.886;2022-09-09T17:46:34;2.67;;;1.47;;
7791;SDS011;3940;49.892;10.886;2022-09-09T17:49:20;3.13;;;1.53;;
7791;SDS011;3940;49.892;10.886;2022-09-09T17:52:05;1.43;;;1.30;;
7791;SDS011;3940;49.892;10.886;2022-09-09T17:54:50;1.97;;;1.40;;
7791;SDS011;3940;49.892;10.886;2022-09-09T17:57:35;1.47;;;1.20;;
7791;SDS011;3940;49.892;10.886;2022-09-09T18:00:19;2.13;;;1.40;;
7791;SDS011;3940;49.892;10.886;2022-09-09T18:03:04;2.83;;;1.27;;
7791;SDS011;3940;49.892;10.886;2022-09-09T18:05:49;2.63;;;1.67;;
7791;SDS011;3940;49.892;10.886;2022-09-09T18:08:34;2.70;;;2.30;;
7791;SDS011;3940;49.892;10.886;2022-09-09T18:11:21;3.10;;;1.37;;
7791;SDS011;3940;49.892;10.886;2022-09-09T18:14:09;3.33;;;1.70;;
7791;SDS011;3940;49.892;10.886;2022-09-09T18:16:57;1.23;;;1.13;;
7791;SDS011;3940;49.892;10.886;2022-09-09T18:19:42;3.17;;;1.40;;
7791;SDS011;3940;49.892;10.886;2022-09-09T18:22:27;1.60;;;1.50;;
7791;SDS011;3940;49.892;10.886;2022-09-09T18:25:13;1.90;;;1.60;;
7791;SDS011;3940;49.892;10.886;2022-09-09T18:27:58;5.60;;;2.33;;
7791;SDS011;3940;49.892;10.886;2022-09-09T18:30:44;1.40;;;1.30;;
7791;SDS011;3940;49.892;10.886;2022-09-09T18:33:29;1.43;;;1.33;;
7791;SDS011;3940;49.892;10.886;2022-09-09T18:36:14;5.00;;;1.73;;